Time;durP1;ratioP1;P1;durP2;ratioP2;P2;SDS_P1;SDS_P2;PMS_P1;PMS_P2;Temp;Humidity;BMP_temperature;BMP_pressure;BME280_temperature;BME280_humidity;BME280_pressure;Samples;Min_cycle;Max_cycle;Signal;HPM_P1;HPM_P2
2022/10/21 00:00:14;;;;;;;19.40;14.10;;;;;;;;;;5131138;27;20077;-59
2022/10/21 00:03:03;;;;;;;19.60;12.93;;;;;;;;;;5151971;27;20364;-59
2022/10/21 00:05:48;;;;;;;18.60;14.25;;;;;;;;;;5133300;27;20015;-59
2022/10/21 00:08:42;;;;;;;19.30;14.48;;;;;;;;;;5151819;27;20110;-59
2022/10/21 00:11:18;;;;;;;19.88;15.27;;;;;;;;;;5132776;27;20030;-59
2022/10/21 00:14:09;;;;;;;20.02;14.95;;;;;;;;;;5133300;27;20027;-59
2022/10/21 00:17:03;;;;;;;20.63;14.32;;;;;;;;;;5151333;27;20484;-59
2022/10/21 00:22:49;;;;;;;20.58;13.82;;;;;;;;;;5133557;27;20034;-59
2022/10/21 00:25:44;;;;;;;15.90;13.73;;;;;;;;;;5150976;27;20027;-59
2022/10/21 00:28:16;;;;;;;19.83;14.48;;;;;;;;;;5151619;27;20055;-59
2022/10/21 00:31:04;;;;;;;14.75;13.20;;;;;;;;;;5150545;27;20038;-59
2022/10/21 00:36:38;;;;;;;16.92;14.65;;;;;;;;;;5067292;28;20101;-59
2022/10/21 00:39:18;;;;;;;19.33;14.05;;;;;;;;;;5150419;27;20062;-59
2022/10/21 00:41:55;;;;;;;19.88;13.45;;;;;;;;;;5132004;27;20043;-59
2022/10/21 00:44:25;;;;;;;21.23;15.82;;;;;;;;;;5150310;27;20035;-59
2022/10/21 00:47:12;;;;;;;18.48;14.13;;;;;;;;;;5150597;27;20061;-59
2022/10/21 00:50:17;;;;;;;18.40;14.40;;;;;;;;;;5115016;27;20061;-59
2022/10/21 00:53:05;;;;;;;18.08;13.52;;;;;;;;;;5050548;27;20153;-60
2022/10/21 00:56:26;;;;;;;15.82;13.32;;;;;;;;;;5150433;27;20041;-59
2022/10/21 00:58:58;;;;;;;17.85;12.75;;;;;;;;;;5141934;27;20662;-60
2022/10/21 01:01:51;;;;;;;19.05;12.27;;;;;;;;;;5030219;28;20143;-59
2022/10/21 01:04:26;;;;;;;14.27;12.13;;;;;;;;;;5118395;27;20042;-59
2022/10/21 01:07:16;;;;;;;16.70;11.75;;;;;;;;;;5150930;27;20147;-59
2022/10/21 01:09:56;;;;;;;18.02;13.20;;;;;;;;;;5150787;27;20026;-59
2022/10/21 01:12:57;;;;;;;;;;;;;;;;;;;;;
2022/10/21 01:15:58;;;;;;;14.15;10.43;;;;;;;;;;5149888;27;20058;-59
2022/10/21 01:25:13;;;;;;;11.63;9.93;;;;;;;;;;5025788;28;20041;-59
2022/10/21 01:27:57;;;;;;;11.48;9.35;;;;;;;;;;5027103;28;20574;-59
2022/10/21 01:40:49;;;;;;;13.10;10.02;;;;;;;;;;4968137;29;20051;-59
2022/10/21 01:43:41;;;;;;;15.80;11.18;;;;;;;;;;5025148;28;20045;-59
2022/10/21 01:46:34;;;;;;;14.23;9.55;;;;;;;;;;5129284;28;20054;-59
2022/10/21 01:49:13;;;;;;;12.02;10.15;;;;;;;;;;5128227;28;20035;-59
2022/10/21 02:00:38;;;;;;;14.70;8.80;;;;;;;;;;5108314;28;20095;-59
2022/10/21 02:06:14;;;;;;;14.95;9.10;;;;;;;;;;5085486;28;20058;-59
2022/10/21 02:09:11;;;;;;;10.68;8.85;;;;;;;;;;5070120;28;20048;-59
2022/10/21 02:14:40;;;;;;;14.25;9.65;;;;;;;;;;5129189;28;20115;-59
2022/10/21 02:17:23;;;;;;;12.60;11.00;;;;;;;;;;5129061;28;20035;-59
2022/10/21 02:26:17;;;;;;;11.80;10.60;;;;;;;;;;5128538;28;20032;-59
2022/10/21 02:32:14;;;;;;;14.15;8.88;;;;;;;;;;5119131;28;20035;-59
2022/10/21 02:35:06;;;;;;;11.57;9.23;;;;;;;;;;5105978;28;20020;-59
2022/10/21 02:40:52;;;;;;;14.25;10.05;;;;;;;;;;5104786;28;20040;-59
2022/10/21 02:52:56;;;;;;;;;;;;;;;;;;;;;
2022/10/21 02:55:29;;;;;;;17.48;8.85;;;;;;;;;;5064563;28;20056;-59
2022/10/21 02:58:19;;;;;;;15.05;8.52;;;;;;;;;;5089957;28;20033;-59
2022/10/21 03:04:41;;;;;;;13.73;9.93;;;;;;;;;;5093093;28;20512;-59
2022/10/21 03:07:17;;;;;;;11.85;9.32;;;;;;;;;;5143967;27;20034;-59
2022/10/21 03:13:28;;;;;;;17.48;8.70;;;;;;;;;;5152917;27;20054;-59
2022/10/21 03:16:33;;;;;;;11.90;8.95;;;;;;;;;;5064582;28;20024;-60
2022/10/21 03:19:37;;;;;;;15.95;9.93;;;;;;;;;;5075110;27;20044;-59
2022/10/21 03:22:19;;;;;;;11.90;10.65;;;;;;;;;;5137060;27;20472;-59
2022/10/21 03:25:10;;;;;;;;;;;;;;;;;;;;;
2022/10/21 03:27:49;;;;;;;;;;;;;;;;;;;;;
2022/10/21 03:30:44;;;;;;;;;;;;;;;;;;;;;
2022/10/21 03:33:29;;;;;;;;;;;;;;;;;;;;;
2022/10/21 03:36:12;;;;;;;13.18;10.00;;;;;;;;;;5051922;27;20023;-59
2022/10/21 03:39:05;;;;;;;13.30;10.65;;;;;;;;;;5137559;27;20031;-59
2022/10/21 03:42:04;;;;;;;14.57;11.43;;;;;;;;;;5079676;27;20453;-59
2022/10/21 03:47:43;;;;;;;18.92;13.05;;;;;;;;;;5138158;27;20164;-59
2022/10/21 03:50:38;;;;;;;17.83;13.15;;;;;;;;;;5138162;27;20027;-59
2022/10/21 03:53:18;;;;;;;16.00;13.07;;;;;;;;;;5110070;27;20072;-59
2022/10/21 03:56:11;;;;;;;15.25;11.98;;;;;;;;;;5138340;27;20023;-59
2022/10/21 03:58:55;;;;;;;15.18;11.82;;;;;;;;;;5119448;27;20529;-59
2022/10/21 04:01:49;;;;;;;;;;;;;;;;;;;;;
2022/10/21 04:04:56;;;;;;;17.98;12.50;;;;;;;;;;5137802;27;20031;-59
2022/10/21 04:07:43;;;;;;;16.58;11.35;;;;;;;;;;5035051;28;20444;-59
2022/10/21 04:13:41;;;;;;;;;;;;;;;;;;;;;
2022/10/21 04:16:28;;;;;;;13.20;10.48;;;;;;;;;;5027802;28;20045;-59
2022/10/21 04:22:20;;;;;;;13.48;11.23;;;;;;;;;;4965845;28;20047;-57
2022/10/21 04:25:05;;;;;;;12.13;10.43;;;;;;;;;;5034467;28;20040;-57
2022/10/21 04:27:40;;;;;;;12.00;9.45;;;;;;;;;;5033919;28;20037;-57
2022/10/21 04:30:47;;;;;;;15.95;11.05;;;;;;;;;;5014018;28;20468;-59
2022/10/21 04:33:46;;;;;;;12.75;10.05;;;;;;;;;;5016672;28;20036;-59
2022/10/21 04:36:40;;;;;;;;;;;;;;;;;;;;;
2022/10/21 04:51:52;;;;;;;9.25;7.60;;;;;;;;;;5093301;28;20035;-59
2022/10/21 04:54:25;;;;;;;11.73;7.35;;;;;;;;;;5094924;28;20067;-59
2022/10/21 04:57:09;;;;;;;11.88;8.07;;;;;;;;;;5128899;27;20027;-59
2022/10/21 04:59:56;;;;;;;11.95;7.25;;;;;;;;;;5118308;27;20020;-58
2022/10/21 05:08:46;;;;;;;8.65;7.72;;;;;;;;;;5120639;27;20040;-59
2022/10/21 05:11:26;;;;;;;9.95;7.28;;;;;;;;;;5141016;27;20019;-59
2022/10/21 05:14:27;;;;;;;11.45;6.80;;;;;;;;;;5136669;27;20028;-59
2022/10/21 05:17:22;;;;;;;8.82;6.03;;;;;;;;;;5136195;27;20035;-59
2022/10/21 05:20:00;;;;;;;11.48;7.80;;;;;;;;;;5032364;28;20033;-59
2022/10/21 05:23:03;;;;;;;8.48;6.03;;;;;;;;;;5013978;28;20483;-59
2022/10/21 05:31:51;;;;;;;;;;;;;;;;;;5136305;27;20396;-59
2022/10/21 05:34:41;;;;;;;12.55;6.85;;;;;;;;;;5116759;27;20263;-59
2022/10/21 05:37:14;;;;;;;7.28;5.82;;;;;;;;;;5104282;27;20039;-59
2022/10/21 05:40:05;;;;;;;12.25;6.15;;;;;;;;;;5136005;27;20019;-58
2022/10/21 05:45:59;;;;;;;9.20;5.30;;;;;;;;;;5130139;27;20035;-59
2022/10/21 05:48:35;;;;;;;5.45;4.50;;;;;;;;;;5135601;27;20054;-59
2022/10/21 05:54:15;;;;;;;6.47;4.88;;;;;;;;;;5117447;27;20038;-59
2022/10/21 05:56:50;;;;;;;8.25;3.30;;;;;;;;;;5135561;27;20110;-59
2022/10/21 05:59:31;;;;;;;9.25;4.97;;;;;;;;;;5117839;27;20031;-59
2022/10/21 06:05:24;;;;;;;12.32;4.22;;;;;;;;;;5060848;28;20028;-59
2022/10/21 06:08:18;;;;;;;7.30;4.85;;;;;;;;;;5071856;28;20028;-60
2022/10/21 06:11:15;;;;;;;6.70;4.78;;;;;;;;;;5055439;28;20047;-59
2022/10/21 06:13:55;;;;;;;6.32;4.20;;;;;;;;;;5054633;28;20402;-59
2022/10/21 06:16:49;;;;;;;13.30;5.03;;;;;;;;;;5071290;28;20029;-58
2022/10/21 06:19:51;;;;;;;9.50;4.53;;;;;;;;;;5071298;28;20024;-58
2022/10/21 06:22:56;;;;;;;;;;;;;;;;;;;;;
2022/10/21 06:28:33;;;;;;;12.38;5.30;;;;;;;;;;5072186;28;20120;-59
2022/10/21 06:31:24;;;;;;;;;;;;;;;;;;;;;
2022/10/21 06:33:56;;;;;;;11.82;4.55;;;;;;;;;;5063844;28;20032;-60
2022/10/21 06:36:29;;;;;;;6.38;4.10;;;;;;;;;;5080677;28;20429;-59
2022/10/21 06:39:24;;;;;;;9.68;4.55;;;;;;;;;;5079830;28;20097;-59
2022/10/21 06:42:07;;;;;;;11.63;4.18;;;;;;;;;;5082398;28;20044;-60
2022/10/21 06:44:53;;;;;;;8.40;4.53;;;;;;;;;;5078808;28;20035;-60
2022/10/21 06:47:55;;;;;;;5.53;3.83;;;;;;;;;;5078081;28;20445;-59
2022/10/21 06:53:27;;;;;;;7.50;3.70;;;;;;;;;;5096602;28;20035;-60
2022/10/21 06:56:15;;;;;;;10.25;4.82;;;;;;;;;;5096745;28;20262;-60
2022/10/21 06:58:53;;;;;;;14.38;4.20;;;;;;;;;;5089381;28;20597;-60
2022/10/21 07:02:07;;;;;;;8.95;4.55;;;;;;;;;;5093660;28;20438;-60
2022/10/21 07:04:51;;;;;;;13.85;4.78;;;;;;;;;;5088135;27;20035;-60
2022/10/21 07:07:39;;;;;;;6.53;3.60;;;;;;;;;;5116065;27;20530;-60
2022/10/21 07:13:40;;;;;;;18.00;3.85;;;;;;;;;;5088011;27;20246;-60
2022/10/21 07:16:18;;;;;;;10.32;3.88;;;;;;;;;;5139694;27;20110;-60
2022/10/21 07:19:30;;;;;;;8.45;4.63;;;;;;;;;;5139432;27;20106;-60
2022/10/21 07:22:17;;;;;;;8.40;4.50;;;;;;;;;;5121053;27;20035;-60
2022/10/21 07:28:18;;;;;;;6.90;3.53;;;;;;;;;;5143484;27;20038;-60
2022/10/21 07:31:29;;;;;;;10.13;3.63;;;;;;;;;;5138390;27;20019;-60
2022/10/21 07:37:00;;;;;;;7.10;4.13;;;;;;;;;;5034823;28;20505;-59
2022/10/21 07:39:56;;;;;;;8.75;5.43;;;;;;;;;;5034630;28;20509;-60
2022/10/21 07:43:00;;;;;;;11.20;5.70;;;;;;;;;;5033011;28;20045;-60
2022/10/21 07:49:00;;;;;;;;;;;;;;;;;;;;;
2022/10/21 07:51:36;;;;;;;8.95;4.70;;;;;;;;;;5117415;28;20343;-59
2022/10/21 08:00:33;;;;;;;7.57;6.10;;;;;;;;;;5073862;28;20047;-59
2022/10/21 08:03:17;;;;;;;10.45;5.85;;;;;;;;;;5057331;28;20037;-59
2022/10/21 08:05:56;;;;;;;10.98;5.82;;;;;;;;;;5073095;28;20032;-59
2022/10/21 08:08:28;;;;;;;9.65;6.18;;;;;;;;;;5091385;28;20028;-59
2022/10/21 08:14:12;;;;;;;10.20;7.18;;;;;;;;;;5108787;28;20054;-59
2022/10/21 08:23:35;;;;;;;11.30;7.38;;;;;;;;;;5073796;28;20075;-60
2022/10/21 08:26:12;;;;;;;9.18;6.38;;;;;;;;;;5073322;28;20530;-60
2022/10/21 08:29:04;;;;;;;9.13;6.10;;;;;;;;;;5101659;28;20078;-60
2022/10/21 08:31:49;;;;;;;9.25;6.47;;;;;;;;;;5120761;28;20043;-60
2022/10/21 08:34:34;;;;;;;10.82;6.10;;;;;;;;;;5129613;28;20453;-60
2022/10/21 08:37:40;;;;;;;8.90;7.20;;;;;;;;;;5130725;28;20020;-60
2022/10/21 08:40:19;;;;;;;10.88;6.07;;;;;;;;;;5046931;28;20038;-60
2022/10/21 08:45:51;;;;;;;14.05;7.30;;;;;;;;;;5046350;28;20064;-57
2022/10/21 08:54:36;;;;;;;10.35;6.20;;;;;;;;;;5129580;28;20031;-58
2022/10/21 08:57:16;;;;;;;12.43;6.07;;;;;;;;;;5113077;28;20031;-60
2022/10/21 08:59:56;;;;;;;13.53;7.80;;;;;;;;;;5130403;28;20027;-60
2022/10/21 09:02:26;;;;;;;11.10;7.32;;;;;;;;;;5129052;28;20030;-60
2022/10/21 09:05:23;;;;;;;14.88;7.10;;;;;;;;;;5127207;28;20027;-60
2022/10/21 09:08:07;;;;;;;8.55;7.03;;;;;;;;;;5129355;28;20032;-60
2022/10/21 09:14:28;;;;;;;10.63;4.47;;;;;;;;;;5105446;28;20030;-60
2022/10/21 09:17:31;;;;;;;9.77;6.47;;;;;;;;;;5027409;28;20030;-60
2022/10/21 09:32:40;;;;;;;;;;;;;;;;;;;;;
2022/10/21 09:38:25;;;;;;;6.50;4.40;;;;;;;;;;4992697;28;20030;-58
2022/10/21 09:41:12;;;;;;;6.05;3.97;;;;;;;;;;4973837;28;20043;-58
2022/10/21 09:43:50;;;;;;;5.43;3.05;;;;;;;;;;5065173;28;20101;-58
2022/10/21 09:46:24;;;;;;;8.18;3.30;;;;;;;;;;5055443;28;20064;-58
2022/10/21 09:49:17;;;;;;;7.30;2.65;;;;;;;;;;5101028;27;20042;-58
2022/10/21 09:52:06;;;;;;;4.53;2.65;;;;;;;;;;5032571;28;20187;-58
2022/10/21 09:58:22;;;;;;;5.63;2.42;;;;;;;;;;5032499;28;20060;-58
2022/10/21 10:04:04;;;;;;;6.00;1.55;;;;;;;;;;5032625;28;20052;-58
2022/10/21 10:06:43;;;;;;;8.18;2.30;;;;;;;;;;5013959;28;20590;-58
2022/10/21 10:09:28;;;;;;;3.20;1.70;;;;;;;;;;5065973;28;20118;-58
2022/10/21 10:15:31;;;;;;;4.28;1.73;;;;;;;;;;5137448;28;20034;-58
2022/10/21 10:18:16;;;;;;;;;;;;;;;;;;;;;
2022/10/21 10:21:03;;;;;;;9.15;2.05;;;;;;;;;;5095255;28;20053;-59
2022/10/21 10:23:57;;;;;;;6.03;2.58;;;;;;;;;;5134465;28;20027;-58
2022/10/21 10:26:51;;;;;;;3.42;1.80;;;;;;;;;;5135155;28;20034;-58
2022/10/21 10:29:41;;;;;;;5.45;2.58;;;;;;;;;;5116386;28;20429;-59
2022/10/21 10:32:37;;;;;;;9.07;2.67;;;;;;;;;;5115936;28;20545;-58
2022/10/21 10:39:00;;;;;;;5.50;2.38;;;;;;;;;;5071494;28;20136;-58
2022/10/21 10:41:54;;;;;;;7.68;2.13;;;;;;;;;;5094747;28;20070;-59
2022/10/21 10:45:03;;;;;;;3.67;2.08;;;;;;;;;;5070843;28;20052;-59
2022/10/21 10:50:42;;;;;;;2.50;1.60;;;;;;;;;;5062723;28;20043;-58
2022/10/21 10:56:35;;;;;;;11.88;2.22;;;;;;;;;;5071197;28;20087;-59
2022/10/21 10:59:18;;;;;;;7.50;2.70;;;;;;;;;;5011415;28;20038;-60
2022/10/21 11:04:56;;;;;;;;;;;;;;;;;;;;;
2022/10/21 11:10:48;;;;;;;;;;;;;;;;;;5011016;28;20044;-60
2022/10/21 11:13:19;;;;;;;;;;;;;;;;;;5012723;28;20385;-60
2022/10/21 11:16:04;;;;;;;;;;;;;;;;;;5051751;28;19915;-60
2022/10/21 11:18:51;;;;;;;4.18;2.55;;;;;;;;;;5057761;28;19904;-60
2022/10/21 11:21:55;;;;;;;3.63;2.35;;;;;;;;;;5074626;28;20431;-60
2022/10/21 11:25:06;;;;;;;7.38;2.22;;;;;;;;;;4995891;28;20074;-60
2022/10/21 11:27:59;;;;;;;8.40;2.53;;;;;;;;;;4919024;29;20329;-59
2022/10/21 11:30:53;;;;;;;5.88;2.50;;;;;;;;;;4917738;29;20502;-60
2022/10/21 11:33:58;;;;;;;5.43;3.45;;;;;;;;;;4919169;29;20052;-60
2022/10/21 11:36:44;;;;;;;4.35;2.08;;;;;;;;;;4919161;29;20064;-59
2022/10/21 11:39:53;;;;;;;5.00;1.90;;;;;;;;;;4942726;28;20447;-60
2022/10/21 11:42:41;;;;;;;;;;;;;;;;;;;;;
2022/10/21 11:45:32;;;;;;;4.22;2.72;;;;;;;;;;5024872;28;20063;-60
2022/10/21 11:51:06;;;;;;;3.65;2.13;;;;;;;;;;5137869;27;20329;-60
2022/10/21 11:57:09;;;;;;;4.55;2.38;;;;;;;;;;5034627;28;20034;-59
2022/10/21 12:00:17;;;;;;;4.68;2.22;;;;;;;;;;5034446;28;20499;-59
2022/10/21 12:03:04;;;;;;;5.32;1.90;;;;;;;;;;5052762;28;20041;-59
2022/10/21 12:05:58;;;;;;;2.22;1.10;;;;;;;;;;5054894;28;20037;-59
2022/10/21 12:12:12;;;;;;;;;;;;;;;;;;;;;
2022/10/21 12:14:56;;;;;;;3.40;1.70;;;;;;;;;;5035442;28;20414;-59
2022/10/21 12:27:10;;;;;;;4.20;1.55;;;;;;;;;;5095366;28;20034;-59
2022/10/21 12:33:15;;;;;;;2.33;1.00;;;;;;;;;;5022672;28;20030;-59
2022/10/21 12:39:32;;;;;;;2.25;0.80;;;;;;;;;;5059242;28;20039;-59
2022/10/21 12:45:00;;;;;;;2.03;1.00;;;;;;;;;;5083670;28;20063;-59
2022/10/21 12:48:09;;;;;;;2.47;1.05;;;;;;;;;;5093745;28;20481;-59
2022/10/21 13:00:38;;;;;;;;;;;;;;;;;;;;;
2022/10/21 13:03:16;;;;;;;3.30;1.38;;;;;;;;;;5123723;27;20038;-59
2022/10/21 13:06:11;;;;;;;;;;;;;;;;;;;;;
2022/10/21 13:09:11;;;;;;;;;;;;;;;;;;;;;
2022/10/21 13:12:18;;;;;;;1.63;1.23;;;;;;;;;;5136651;27;20141;-59
2022/10/21 13:18:35;;;;;;;2.63;0.80;;;;;;;;;;5117968;27;20101;-59
2022/10/21 13:21:20;;;;;;;2.17;1.40;;;;;;;;;;5135720;27;20030;-59
2022/10/21 13:24:24;;;;;;;1.98;1.05;;;;;;;;;;5136239;27;20509;-59
2022/10/21 13:30:11;;;;;;;1.10;0.80;;;;;;;;;;5131924;27;20437;-59
2022/10/21 13:32:58;;;;;;;2.28;1.40;;;;;;;;;;5134928;27;20528;-59
2022/10/21 13:39:09;;;;;;;;;;;;;;;;;;;;;
2022/10/21 13:48:37;;;;;;;2.45;0.60;;;;;;;;;;5136015;27;20403;-59
2022/10/21 13:51:39;;;;;;;;;;;;;;;;;;;;;
2022/10/21 13:54:18;;;;;;;1.65;0.75;;;;;;;;;;5126713;27;20467;-59
2022/10/21 14:00:17;;;;;;;2.65;1.00;;;;;;;;;;5135455;27;20050;-58
2022/10/21 14:03:22;;;;;;;3.42;1.08;;;;;;;;;;5134437;27;20076;-59
2022/10/21 14:06:08;;;;;;;2.47;0.65;;;;;;;;;;5015752;28;20179;-59
2022/10/21 14:08:56;;;;;;;1.00;0.50;;;;;;;;;;5032811;28;20104;-59
2022/10/21 14:14:46;;;;;;;1.10;0.50;;;;;;;;;;5055451;28;20034;-59
2022/10/21 14:17:47;;;;;;;2.58;0.90;;;;;;;;;;5116944;28;20019;-59
2022/10/21 14:20:49;;;;;;;3.08;0.98;;;;;;;;;;5015311;28;20113;-59
2022/10/21 14:23:56;;;;;;;1.65;0.95;;;;;;;;;;5041464;28;20021;-59
2022/10/21 14:26:40;;;;;;;;;;;;;;;;;;;;;
2022/10/21 14:29:29;;;;;;;;;;;;;;;;;;;;;
2022/10/21 14:33:14;;;;;;;3.47;0.98;;;;;;;;;;5136779;28;20452;-59
2022/10/21 14:35:42;;;;;;;3.13;0.93;;;;;;;;;;5029816;28;20026;-59
2022/10/21 14:38:30;;;;;;;1.63;0.95;;;;;;;;;;5135117;28;20448;-59
2022/10/21 14:44:35;;;;;;;1.83;0.88;;;;;;;;;;5117388;27;20082;-59
2022/10/21 14:50:07;;;;;;;7.45;1.55;;;;;;;;;;5134552;27;20030;-59
2022/10/21 14:52:46;;;;;;;;;;;;;;;;;;;;;
2022/10/21 14:55:29;;;;;;;;;;;;;;;;;;;;;
2022/10/21 15:01:26;;;;;;;1.88;1.02;;;;;;;;;;5106805;27;20045;-59
2022/10/21 15:04:11;;;;;;;0.98;0.50;;;;;;;;;;5103654;27;20027;-59
2022/10/21 15:06:42;;;;;;;1.55;0.73;;;;;;;;;;5138374;27;20030;-59
2022/10/21 15:09:52;;;;;;;2.33;0.60;;;;;;;;;;5119130;27;20123;-59
2022/10/21 15:12:46;;;;;;;1.20;0.68;;;;;;;;;;5126528;27;20168;-59
2022/10/21 15:15:40;;;;;;;1.85;0.65;;;;;;;;;;5121462;27;20413;-59
2022/10/21 15:21:51;;;;;;;2.63;0.63;;;;;;;;;;5137651;27;20071;-59
2022/10/21 15:24:35;;;;;;;5.85;0.80;;;;;;;;;;5138197;27;20372;-59
2022/10/21 15:27:26;;;;;;;2.40;1.30;;;;;;;;;;5122006;27;20020;-59
2022/10/21 15:33:18;;;;;;;1.92;0.70;;;;;;;;;;5134034;27;20035;-59
2022/10/21 15:36:05;;;;;;;1.40;0.60;;;;;;;;;;5098048;27;20035;-59
2022/10/21 15:45:16;;;;;;;1.35;0.60;;;;;;;;;;5099098;27;20111;-60
2022/10/21 15:47:58;;;;;;;1.20;0.60;;;;;;;;;;5102519;27;20469;-59
2022/10/21 15:50:40;;;;;;;;;;;;;;;;;;;;;
2022/10/21 15:56:47;;;;;;;1.85;0.82;;;;;;;;;;5138122;27;20042;-59
2022/10/21 15:59:35;;;;;;;1.63;0.98;;;;;;;;;;5033883;28;20029;-59
2022/10/21 16:02:06;;;;;;;1.25;0.52;;;;;;;;;;5115111;27;20046;-59
2022/10/21 16:04:39;;;;;;;1.23;0.88;;;;;;;;;;5103501;27;20473;-59
2022/10/21 16:07:43;;;;;;;;;;;;;;;;;;;;;
2022/10/21 16:10:59;;;;;;;1.65;0.57;;;;;;;;;;5132419;27;20027;-59
2022/10/21 16:13:37;;;;;;;1.83;0.63;;;;;;;;;;5017697;28;20032;-59
2022/10/21 16:16:31;;;;;;;1.30;0.57;;;;;;;;;;5136099;27;20032;-60
2022/10/21 16:19:17;;;;;;;0.82;0.38;;;;;;;;;;5118000;27;20031;-60
2022/10/21 16:28:16;;;;;;;1.08;0.52;;;;;;;;;;5079981;27;20458;-60
2022/10/21 16:30:58;;;;;;;1.25;0.40;;;;;;;;;;5137757;27;20513;-59
2022/10/21 16:36:40;;;;;;;;;;;;;;;;;;5132408;27;20042;-59
2022/10/21 16:39:27;;;;;;;0.85;0.32;;;;;;;;;;5138384;27;19903;-60
2022/10/21 16:42:18;;;;;;;;;;;;;;;;;;;;;
2022/10/21 16:47:55;;;;;;;2.50;0.60;;;;;;;;;;5033369;28;20034;-60
2022/10/21 16:50:44;;;;;;;1.55;0.52;;;;;;;;;;5015808;28;20041;-60
2022/10/21 16:53:27;;;;;;;1.50;0.77;;;;;;;;;;5128108;27;20039;-59
2022/10/21 16:56:22;;;;;;;2.10;0.75;;;;;;;;;;5137813;27;20023;-59
2022/10/21 16:58:54;;;;;;;1.50;0.63;;;;;;;;;;5140181;27;20015;-60
2022/10/21 17:01:26;;;;;;;4.03;0.60;;;;;;;;;;5139533;27;20112;-59
2022/10/21 17:04:28;;;;;;;1.33;0.50;;;;;;;;;;5117534;27;20024;-60
2022/10/21 17:07:06;;;;;;;1.63;0.85;;;;;;;;;;5117620;27;20528;-59
2022/10/21 17:13:27;;;;;;;3.92;1.05;;;;;;;;;;5011910;28;20141;-59
2022/10/21 17:15:57;;;;;;;3.03;0.73;;;;;;;;;;5030555;28;20033;-59
2022/10/21 17:18:58;;;;;;;1.73;0.83;;;;;;;;;;5118984;27;20054;-59
2022/10/21 17:21:47;;;;;;;3.63;1.50;;;;;;;;;;5033275;27;20288;-60
2022/10/21 17:24:37;;;;;;;2.50;1.55;;;;;;;;;;5125876;27;20039;-60
2022/10/21 17:27:34;;;;;;;2.33;1.13;;;;;;;;;;5115457;27;20092;-60
2022/10/21 17:33:05;;;;;;;1.83;0.70;;;;;;;;;;5135723;27;20050;-60
2022/10/21 17:38:34;;;;;;;3.05;1.48;;;;;;;;;;5135707;27;20101;-59
2022/10/21 17:41:10;;;;;;;1.33;0.75;;;;;;;;;;5136222;27;20031;-59
2022/10/21 17:46:35;;;;;;;1.85;0.93;;;;;;;;;;5104279;28;20047;-59
2022/10/21 17:49:25;;;;;;;1.45;0.68;;;;;;;;;;5096996;28;20114;-59
2022/10/21 17:52:03;;;;;;;3.95;1.33;;;;;;;;;;5098162;28;20458;-59
2022/10/21 17:57:36;;;;;;;1.17;0.73;;;;;;;;;;5115233;28;20373;-60
2022/10/21 18:00:43;;;;;;;2.15;0.93;;;;;;;;;;5114299;28;20023;-59
2022/10/21 18:03:13;;;;;;;1.23;0.57;;;;;;;;;;4973370;28;20417;-60
2022/10/21 18:09:07;;;;;;;3.08;0.95;;;;;;;;;;4906188;29;20036;-60
2022/10/21 18:11:54;;;;;;;1.65;0.55;;;;;;;;;;4996142;28;20120;-60
2022/10/21 18:14:52;;;;;;;1.98;0.68;;;;;;;;;;5032378;28;20483;-59
2022/10/21 18:20:45;;;;;;;4.28;1.85;;;;;;;;;;4934814;29;20039;-60
2022/10/21 18:23:29;;;;;;;4.93;1.02;;;;;;;;;;5024877;28;20087;-59
2022/10/21 18:26:12;;;;;;;1.35;0.73;;;;;;;;;;5035754;28;20033;-60
2022/10/21 18:32:37;;;;;;;;;;;;;;;;;;;;;
2022/10/21 18:38:09;;;;;;;2.72;0.88;;;;;;;;;;5076452;28;20090;-60
2022/10/21 18:40:41;;;;;;;1.92;0.70;;;;;;;;;;5096428;28;20036;-61
2022/10/21 18:43:27;;;;;;;1.05;0.55;;;;;;;;;;5100720;28;20047;-60
2022/10/21 18:46:00;;;;;;;1.92;0.88;;;;;;;;;;5134014;27;20537;-61
2022/10/21 18:48:44;;;;;;;3.90;1.10;;;;;;;;;;5139530;27;20110;-61
2022/10/21 18:51:29;;;;;;;1.10;0.65;;;;;;;;;;5120061;27;20039;-61
2022/10/21 18:54:16;;;;;;;2.40;1.00;;;;;;;;;;5119891;27;20064;-61
2022/10/21 18:57:04;;;;;;;4.60;2.03;;;;;;;;;;5139024;27;20374;-61
2022/10/21 19:00:08;;;;;;;2.83;1.70;;;;;;;;;;5121398;27;20043;-61
2022/10/21 19:09:42;;;;;;;2.72;1.48;;;;;;;;;;5128612;27;20039;-61
2022/10/21 19:12:21;;;;;;;3.55;1.55;;;;;;;;;;5102121;27;20027;-60
2022/10/21 19:15:24;;;;;;;2.60;1.23;;;;;;;;;;5122298;27;20073;-60
2022/10/21 19:17:56;;;;;;;2.00;1.15;;;;;;;;;;5107032;27;20078;-60
2022/10/21 19:26:33;;;;;;;2.58;1.30;;;;;;;;;;5116718;27;20383;-59
2022/10/21 19:29:42;;;;;;;1.98;1.15;;;;;;;;;;5120176;27;20065;-60
2022/10/21 19:35:14;;;;;;;6.35;1.42;;;;;;;;;;5099470;27;20023;-60
2022/10/21 19:38:09;;;;;;;2.05;1.20;;;;;;;;;;5136749;27;20160;-60
2022/10/21 19:40:46;;;;;;;1.25;0.68;;;;;;;;;;5134791;27;20499;-60
2022/10/21 19:43:23;;;;;;;3.08;1.60;;;;;;;;;;5137977;27;20096;-60
2022/10/21 19:45:57;;;;;;;1.98;1.10;;;;;;;;;;5118611;27;20047;-60
2022/10/21 19:48:28;;;;;;;2.42;1.75;;;;;;;;;;5119087;27;20109;-60
2022/10/21 19:53:50;;;;;;;2.45;1.42;;;;;;;;;;5095337;27;20031;-60
2022/10/21 20:02:25;;;;;;;;;;;;;;;;;;;;;
2022/10/21 20:05:14;;;;;;;1.60;1.05;;;;;;;;;;5138175;27;20026;-60
2022/10/21 20:11:25;;;;;;;3.17;1.73;;;;;;;;;;5094346;28;20043;-60
2022/10/21 20:14:15;;;;;;;2.42;1.63;;;;;;;;;;5094279;28;20028;-60
2022/10/21 20:17:18;;;;;;;;;;;;;;;;;;;;;
2022/10/21 20:20:02;;;;;;;4.50;1.92;;;;;;;;;;5084717;28;20054;-60
2022/10/21 20:26:07;;;;;;;2.50;1.05;;;;;;;;;;5056720;27;20025;-60
2022/10/21 20:28:49;;;;;;;4.38;1.50;;;;;;;;;;5114583;27;20583;-60
2022/10/21 20:31:28;;;;;;;1.85;1.20;;;;;;;;;;5120710;27;20054;-60
2022/10/21 20:37:21;;;;;;;2.55;1.30;;;;;;;;;;5127457;27;20057;-60
2022/10/21 20:45:55;;;;;;;2.72;1.38;;;;;;;;;;5135943;27;20097;-60
2022/10/21 20:48:31;;;;;;;3.03;1.75;;;;;;;;;;5136798;27;20058;-59
2022/10/21 20:51:22;;;;;;;3.60;1.50;;;;;;;;;;5112654;27;20472;-59
2022/10/21 20:54:10;;;;;;;9.00;2.15;;;;;;;;;;5117666;27;20027;-60
2022/10/21 20:56:55;;;;;;;6.07;1.77;;;;;;;;;;5137588;27;20038;-59
2022/10/21 21:02:43;;;;;;;2.85;2.03;;;;;;;;;;5145409;27;20424;-60
2022/10/21 21:05:22;;;;;;;4.10;2.20;;;;;;;;;;5085699;28;20032;-59
2022/10/21 21:08:33;;;;;;;;;;;;;;;;;;;;;
2022/10/21 21:14:31;;;;;;;;;;;;;;;;;;;;;
2022/10/21 21:17:39;;;;;;;3.42;1.77;;;;;;;;;;5103693;28;20092;-60
2022/10/21 21:20:08;;;;;;;3.45;2.13;;;;;;;;;;5039260;28;20036;-60
2022/10/21 21:23:05;;;;;;;3.88;2.13;;;;;;;;;;5103062;28;20509;-59
2022/10/21 21:25:43;;;;;;;4.28;2.20;;;;;;;;;;5103681;28;20553;-60
2022/10/21 21:31:17;;;;;;;3.92;2.40;;;;;;;;;;5103710;28;20062;-60
2022/10/21 21:34:01;;;;;;;3.95;2.33;;;;;;;;;;5104125;28;20479;-60
2022/10/21 21:39:58;;;;;;;8.85;3.33;;;;;;;;;;5132782;27;20038;-60
2022/10/21 21:42:52;;;;;;;4.20;2.42;;;;;;;;;;5043922;28;20479;-60
2022/10/21 21:45:51;;;;;;;3.65;2.53;;;;;;;;;;5043745;28;20021;-60
2022/10/21 21:48:26;;;;;;;4.60;2.72;;;;;;;;;;5143327;27;20053;-60
2022/10/21 21:51:23;;;;;;;5.35;2.53;;;;;;;;;;5146887;27;20023;-60
2022/10/21 21:57:28;;;;;;;6.47;1.80;;;;;;;;;;5130589;27;20496;-60
2022/10/21 22:00:17;;;;;;;6.63;1.83;;;;;;;;;;5147718;27;20076;-60
2022/10/21 22:02:55;;;;;;;5.95;1.50;;;;;;;;;;5130067;27;20538;-60
2022/10/21 22:08:10;;;;;;;2.22;1.05;;;;;;;;;;5147456;27;20030;-60
2022/10/21 22:10:48;;;;;;;3.45;1.10;;;;;;;;;;5127979;27;20027;-60
2022/10/21 22:14:05;;;;;;;1.85;0.55;;;;;;;;;;5147190;27;20697;-59
2022/10/21 22:16:44;;;;;;;2.72;1.50;;;;;;;;;;5102514;27;20062;-60
2022/10/21 22:25:12;;;;;;;3.17;1.10;;;;;;;;;;5147681;28;20035;-60
2022/10/21 22:28:06;;;;;;;1.50;0.90;;;;;;;;;;5147144;28;20037;-60
2022/10/21 22:30:44;;;;;;;1.77;1.00;;;;;;;;;;5147051;28;20028;-60
2022/10/21 22:37:18;;;;;;;2.40;1.00;;;;;;;;;;5104199;28;20451;-60
2022/10/21 22:45:52;;;;;;;1.60;0.60;;;;;;;;;;5003612;28;20093;-60
2022/10/21 22:48:24;;;;;;;2.95;0.90;;;;;;;;;;5004519;28;20034;-60
2022/10/21 22:51:12;;;;;;;3.38;0.90;;;;;;;;;;5004169;28;20392;-60
2022/10/21 22:54:06;;;;;;;1.20;0.60;;;;;;;;;;5004070;28;20042;-60
2022/10/21 22:57:00;;;;;;;;;;;;;;;;;;;;;
2022/10/21 22:59:44;;;;;;;1.38;0.52;;;;;;;;;;5004071;28;20098;-60
2022/10/21 23:02:28;;;;;;;2.63;0.77;;;;;;;;;;5003540;28;20034;-60
2022/10/21 23:05:23;;;;;;;;;;;;;;;;;;;;;
2022/10/21 23:08:11;;;;;;;0.75;0.40;;;;;;;;;;5002936;28;20475;-60
2022/10/21 23:10:52;;;;;;;1.10;0.50;;;;;;;;;;5003803;28;20042;-60
2022/10/21 23:13:31;;;;;;;1.95;0.60;;;;;;;;;;5017310;28;20117;-60
2022/10/21 23:19:08;;;;;;;0.47;0.28;;;;;;;;;;4977522;28;20065;-60
2022/10/21 23:24:43;;;;;;;;;;;;;;;;;;;;;
2022/10/21 23:27:46;;;;;;;0.55;0.30;;;;;;;;;;5040615;28;20061;-60
2022/10/21 23:30:27;;;;;;;0.43;0.30;;;;;;;;;;5049677;28;20033;-60
2022/10/21 23:33:18;;;;;;;0.77;0.35;;;;;;;;;;5066684;28;20111;-60
2022/10/21 23:41:46;;;;;;;1.08;0.47;;;;;;;;;;5001348;28;20045;-60
2022/10/21 23:44:46;;;;;;;;;;;;;;;;;;;;;
2022/10/21 23:47:45;;;;;;;1.73;0.32;;;;;;;;;;5060463;28;20067;-60
2022/10/21 23:50:21;;;;;;;0.43;0.20;;;;;;;;;;5028255;28;20030;-60
